sensor_id;sensor_type;location;lat;lon;timestamp;pressure;altitude;pressure_sealevel;temperature;humidity
21824;BME280;11074;48.596;9.238;2023-03-09T00:01:42;95822.03;;;10.96;100.00
21824;BME280;11074;48.596;9.238;2023-03-09T00:04:14;95844.19;;;10.96;100.00
21824;BME280;11074;48.596;9.238;2023-03-09T00:06:40;95831.00;;;11.00;100.00
21824;BME280;11074;48.596;9.238;2023-03-09T00:09:06;95831.31;;;10.99;100.00
21824;BME280;11074;48.596;9.238;2023-03-09T00:11:33;95832.88;;;11.00;100.00
21824;BME280;11074;48.596;9.238;2023-03-09T00:13:59;95828.78;;;11.02;100.00
21824;BME280;11074;48.596;9.238;2023-03-09T00:16:28;95823.94;;;11.04;100.00
21824;BME280;11074;48.596;9.238;2023-03-09T00:18:56;95839.19;;;11.04;100.00
21824;BME280;11074;48.596;9.238;2023-03-09T00:21:25;95836.19;;;11.05;100.00
21824;BME280;11074;48.596;9.238;2023-03-09T00:24:09;95840.44;;;11.06;100.00
21824;BME280;11074;48.596;9.238;2023-03-09T00:26:37;95849.72;;;11.09;99.90
21824;BME280;11074;48.596;9.238;2023-03-09T00:29:06;95867.19;;;11.06;100.00
21824;BME280;11074;48.596;9.238;2023-03-09T00:31:32;95890.91;;;11.08;100.00
21824;BME280;11074;48.596;9.238;2023-03-09T00:33:58;95914.84;;;11.04;100.00
21824;BME280;11074;48.596;9.238;2023-03-09T00:36:24;95976.94;;;11.01;100.00
21824;BME280;11074;48.596;9.238;2023-03-09T00:38:55;95959.63;;;11.07;100.00
21824;BME280;11074;48.596;9.238;2023-03-09T00:41:24;95983.69;;;11.07;100.00
21824;BME280;11074;48.596;9.238;2023-03-09T00:43:52;95967.03;;;11.02;100.00
21824;BME280;11074;48.596;9.238;2023-03-09T00:46:18;95980.69;;;11.00;100.00
21824;BME280;11074;48.596;9.238;2023-03-09T00:48:44;95994.81;;;10.92;100.00
21824;BME280;11074;48.596;9.238;2023-03-09T00:51:10;95989.91;;;10.85;100.00
21824;BME280;11074;48.596;9.238;2023-03-09T00:53:37;96002.78;;;10.83;100.00
21824;BME280;11074;48.596;9.238;2023-03-09T00:56:07;95996.03;;;10.86;100.00
21824;BME280;11074;48.596;9.238;2023-03-09T00:58:33;95968.66;;;10.80;100.00
21824;BME280;11074;48.596;9.238;2023-03-09T01:00:59;95988.00;;;10.86;100.00
21824;BME280;11074;48.596;9.238;2023-03-09T01:03:24;95970.69;;;10.83;100.00
21824;BME280;11074;48.596;9.238;2023-03-09T01:05:51;95989.91;;;10.85;100.00
21824;BME280;11074;48.596;9.238;2023-03-09T01:08:17;95986.13;;;10.86;100.00
21824;BME280;11074;48.596;9.238;2023-03-09T01:10:43;95997.63;;;10.87;100.00
21824;BME280;11074;48.596;9.238;2023-03-09T01:13:09;96020.88;;;10.86;100.00
21824;BME280;11074;48.596;9.238;2023-03-09T01:15:37;96033.16;;;10.87;100.00
21824;BME280;11074;48.596;9.238;2023-03-09T01:18:03;96038.50;;;10.87;100.00
21824;BME280;11074;48.596;9.238;2023-03-09T01:20:29;96042.25;;;10.86;100.00
21824;BME280;11074;48.596;9.238;2023-03-09T01:22:55;96047.75;;;10.81;100.00
21824;BME280;11074;48.596;9.238;2023-03-09T01:25:21;96060.75;;;10.74;100.00
21824;BME280;11074;48.596;9.238;2023-03-09T01:27:46;96067.78;;;10.70;100.00
21824;BME280;11074;48.596;9.238;2023-03-09T01:30:12;96048.53;;;10.60;100.00
21824;BME280;11074;48.596;9.238;2023-03-09T01:32:38;96037.72;;;10.65;100.00
21824;BME280;11074;48.596;9.238;2023-03-09T01:35:06;96037.56;;;10.61;99.54
21824;BME280;11074;48.596;9.238;2023-03-09T01:37:32;96033.09;;;10.57;99.18
21824;BME280;11074;48.596;9.238;2023-03-09T01:39:58;96023.34;;;10.52;99.98
21824;BME280;11074;48.596;9.238;2023-03-09T01:42:24;96025.81;;;10.49;99.50
21824;BME280;11074;48.596;9.238;2023-03-09T01:47:47;96051.09;;;10.43;99.68
21824;BME280;11074;48.596;9.238;2023-03-09T01:50:21;96004.09;;;10.42;98.99
21824;BME280;11074;48.596;9.238;2023-03-09T01:52:53;96008.34;;;10.43;99.21
21824;BME280;11074;48.596;9.238;2023-03-09T01:55:28;96016.78;;;10.36;99.41
21824;BME280;11074;48.596;9.238;2023-03-09T01:58:04;96042.88;;;10.39;99.03
21824;BME280;11074;48.596;9.238;2023-03-09T02:00:33;96058.72;;;10.35;99.74
21824;BME280;11074;48.596;9.238;2023-03-09T02:03:11;96085.84;;;10.29;99.15
21824;BME280;11074;48.596;9.238;2023-03-09T02:06:02;96070.31;;;10.31;100.00
21824;BME280;11074;48.596;9.238;2023-03-09T02:08:32;96075.16;;;10.29;100.00
21824;BME280;11074;48.596;9.238;2023-03-09T02:11:08;96087.34;;;10.21;99.43
21824;BME280;11074;48.596;9.238;2023-03-09T02:13:39;96029.69;;;10.07;99.60
21824;BME280;11074;48.596;9.238;2023-03-09T02:16:06;95974.13;;;10.09;99.25
21824;BME280;11074;48.596;9.238;2023-03-09T02:18:32;95998.38;;;9.99;98.29
21824;BME280;11074;48.596;9.238;2023-03-09T02:26:51;95972.91;;;9.93;99.69
21824;BME280;11074;48.596;9.238;2023-03-09T02:29:17;95983.09;;;9.91;99.73
21824;BME280;11074;48.596;9.238;2023-03-09T02:31:43;95992.91;;;9.82;99.82
21824;BME280;11074;48.596;9.238;2023-03-09T02:34:09;95996.06;;;9.84;100.00
21824;BME280;11074;48.596;9.238;2023-03-09T02:36:35;96007.03;;;9.82;99.80
21824;BME280;11074;48.596;9.238;2023-03-09T02:39:23;95997.44;;;9.81;99.21
21824;BME280;11074;48.596;9.238;2023-03-09T02:41:54;96003.59;;;9.82;99.14
21824;BME280;11074;48.596;9.238;2023-03-09T02:44:23;95998.06;;;9.78;99.31
21824;BME280;11074;48.596;9.238;2023-03-09T02:46:49;96003.19;;;9.74;99.96
21824;BME280;11074;48.596;9.238;2023-03-09T02:49:16;95998.66;;;9.75;99.80
21824;BME280;11074;48.596;9.238;2023-03-09T02:51:42;96001.50;;;9.79;99.53
21824;BME280;11074;48.596;9.238;2023-03-09T02:54:08;96002.59;;;9.77;100.00
21824;BME280;11074;48.596;9.238;2023-03-09T02:56:34;96006.66;;;9.75;99.59
21824;BME280;11074;48.596;9.238;2023-03-09T02:59:00;96019.09;;;9.80;99.86
21824;BME280;11074;48.596;9.238;2023-03-09T03:01:28;96022.84;;;9.79;100.00
21824;BME280;11074;48.596;9.238;2023-03-09T03:03:54;96016.63;;;9.69;100.00
21824;BME280;11074;48.596;9.238;2023-03-09T03:06:20;96026.63;;;9.64;100.00
21824;BME280;11074;48.596;9.238;2023-03-09T03:08:45;96034.63;;;9.64;100.00
21824;BME280;11074;48.596;9.238;2023-03-09T03:11:11;96036.00;;;9.61;100.00
21824;BME280;11074;48.596;9.238;2023-03-09T03:13:37;96045.72;;;9.57;100.00
21824;BME280;11074;48.596;9.238;2023-03-09T03:16:04;96056.38;;;9.57;100.00
21824;BME280;11074;48.596;9.238;2023-03-09T03:18:30;96071.47;;;9.62;100.00
21824;BME280;11074;48.596;9.238;2023-03-09T03:20:56;96082.16;;;9.62;100.00
21824;BME280;11074;48.596;9.238;2023-03-09T03:23:23;96084.22;;;9.65;100.00
21824;BME280;11074;48.596;9.238;2023-03-09T03:25:49;96091.44;;;9.64;100.00
21824;BME280;11074;48.596;9.238;2023-03-09T03:28:15;96114.06;;;9.67;100.00
21824;BME280;11074;48.596;9.238;2023-03-09T03:30:41;96113.47;;;9.70;99.91
21824;BME280;11074;48.596;9.238;2023-03-09T03:33:06;96130.97;;;9.62;100.00
21824;BME280;11074;48.596;9.238;2023-03-09T03:35:32;96137.78;;;9.68;100.00
21824;BME280;11074;48.596;9.238;2023-03-09T03:37:58;96156.03;;;9.61;100.00
21824;BME280;11074;48.596;9.238;2023-03-09T03:40:23;96169.59;;;9.65;100.00
21824;BME280;11074;48.596;9.238;2023-03-09T03:42:49;96185.38;;;9.61;100.00
21824;BME280;11074;48.596;9.238;2023-03-09T03:45:15;96192.72;;;9.69;100.00
21824;BME280;11074;48.596;9.238;2023-03-09T03:47:40;96217.91;;;9.77;100.00
21824;BME280;11074;48.596;9.238;2023-03-09T03:50:07;96190.38;;;9.82;100.00
21824;BME280;11074;48.596;9.238;2023-03-09T03:52:33;96203.41;;;9.83;99.15
21824;BME280;11074;48.596;9.238;2023-03-09T03:54:58;96214.28;;;9.87;97.84
21824;BME280;11074;48.596;9.238;2023-03-09T03:57:24;96213.72;;;9.90;96.16
21824;BME280;11074;48.596;9.238;2023-03-09T03:59:50;96222.41;;;9.95;94.83
21824;BME280;11074;48.596;9.238;2023-03-09T04:02:15;96243.25;;;9.93;94.88
21824;BME280;11074;48.596;9.238;2023-03-09T04:04:41;96245.44;;;9.91;94.94
21824;BME280;11074;48.596;9.238;2023-03-09T04:07:07;96239.59;;;9.89;95.34
21824;BME280;11074;48.596;9.238;2023-03-09T04:09:33;96259.44;;;9.83;94.41
21824;BME280;11074;48.596;9.238;2023-03-09T04:11:59;96246.41;;;9.82;94.86
21824;BME280;11074;48.596;9.238;2023-03-09T04:14:24;96248.38;;;9.76;93.62
21824;BME280;11074;48.596;9.238;2023-03-09T04:16:50;96274.25;;;9.75;93.29
21824;BME280;11074;48.596;9.238;2023-03-09T04:19:16;96264.16;;;9.72;93.97
21824;BME280;11074;48.596;9.238;2023-03-09T04:21:42;96259.75;;;9.82;93.66
21824;BME280;11074;48.596;9.238;2023-03-09T04:24:07;96274.97;;;9.81;93.35
21824;BME280;11074;48.596;9.238;2023-03-09T04:26:33;96288.41;;;9.76;94.13
21824;BME280;11074;48.596;9.238;2023-03-09T04:28:59;96308.38;;;9.79;93.39
21824;BME280;11074;48.596;9.238;2023-03-09T04:31:24;96309.03;;;9.70;93.82
21824;BME280;11074;48.596;9.238;2023-03-09T04:33:50;96312.84;;;9.64;93.81
21824;BME280;11074;48.596;9.238;2023-03-09T04:36:16;96310.59;;;9.71;93.35
21824;BME280;11074;48.596;9.238;2023-03-09T04:38:44;96313.06;;;9.68;93.10
21824;BME280;11074;48.596;9.238;2023-03-09T04:41:12;96332.31;;;9.65;94.34
21824;BME280;11074;48.596;9.238;2023-03-09T04:43:37;96327.00;;;9.65;93.92
21824;BME280;11074;48.596;9.238;2023-03-09T04:46:03;96324.81;;;9.67;93.86
21824;BME280;11074;48.596;9.238;2023-03-09T04:48:29;96331.25;;;9.66;93.45
21824;BME280;11074;48.596;9.238;2023-03-09T04:50:54;96326.69;;;9.66;93.84
21824;BME280;11074;48.596;9.238;2023-03-09T04:53:20;96342.91;;;9.70;93.95
21824;BME280;11074;48.596;9.238;2023-03-09T04:55:46;96341.06;;;9.70;93.72
21824;BME280;11074;48.596;9.238;2023-03-09T04:58:11;96359.72;;;9.70;94.07
21824;BME280;11074;48.596;9.238;2023-03-09T05:00:37;96354.47;;;9.65;93.87
21824;BME280;11074;48.596;9.238;2023-03-09T05:03:03;96376.16;;;9.59;93.97
21824;BME280;11074;48.596;9.238;2023-03-09T05:05:29;96374.53;;;9.63;93.88
21824;BME280;11074;48.596;9.238;2023-03-09T05:07:54;96377.69;;;9.65;93.51
21824;BME280;11074;48.596;9.238;2023-03-09T05:10:20;96391.03;;;9.65;93.65
21824;BME280;11074;48.596;9.238;2023-03-09T05:12:46;96383.28;;;9.63;93.58
21824;BME280;11074;48.596;9.238;2023-03-09T05:15:12;96388.13;;;9.61;94.04
21824;BME280;11074;48.596;9.238;2023-03-09T05:17:37;96399.91;;;9.60;93.41
21824;BME280;11074;48.596;9.238;2023-03-09T05:20:04;96411.06;;;9.62;93.83
21824;BME280;11074;48.596;9.238;2023-03-09T05:22:35;96405.25;;;9.60;93.68
21824;BME280;11074;48.596;9.238;2023-03-09T05:25:01;96407.94;;;9.55;93.78
21824;BME280;11074;48.596;9.238;2023-03-09T05:27:27;96413.28;;;9.55;94.30
21824;BME280;11074;48.596;9.238;2023-03-09T05:29:52;96416.47;;;9.57;93.54
21824;BME280;11074;48.596;9.238;2023-03-09T05:32:18;96423.38;;;9.58;94.17
21824;BME280;11074;48.596;9.238;2023-03-09T05:34:46;96435.16;;;9.57;93.71
21824;BME280;11074;48.596;9.238;2023-03-09T05:37:11;96427.22;;;9.52;94.19
21824;BME280;11074;48.596;9.238;2023-03-09T05:39:37;96442.13;;;9.53;93.92
21824;BME280;11074;48.596;9.238;2023-03-09T05:42:03;96446.97;;;9.51;95.24
21824;BME280;11074;48.596;9.238;2023-03-09T05:44:29;96457.94;;;9.50;94.94
21824;BME280;11074;48.596;9.238;2023-03-09T05:46:54;96459.81;;;9.49;95.25
21824;BME280;11074;48.596;9.238;2023-03-09T05:49:20;96463.53;;;9.48;95.42
21824;BME280;11074;48.596;9.238;2023-03-09T05:51:46;96469.66;;;9.49;95.73
21824;BME280;11074;48.596;9.238;2023-03-09T05:54:11;96472.63;;;9.47;95.78
21824;BME280;11074;48.596;9.238;2023-03-09T05:56:37;96484.88;;;9.48;95.59
21824;BME280;11074;48.596;9.238;2023-03-09T05:59:04;96479.84;;;9.47;95.58
21824;BME280;11074;48.596;9.238;2023-03-09T06:01:30;96487.53;;;9.48;96.07
21824;BME280;11074;48.596;9.238;2023-03-09T06:03:56;96495.84;;;9.47;95.76
21824;BME280;11074;48.596;9.238;2023-03-09T06:06:22;96497.94;;;9.50;95.92
21824;BME280;11074;48.596;9.238;2023-03-09T06:11:16;96501.69;;;9.49;95.70
21824;BME280;11074;48.596;9.238;2023-03-09T06:13:43;96502.19;;;9.51;95.78
21824;BME280;11074;48.596;9.238;2023-03-09T06:16:14;96515.06;;;9.44;96.25
21824;BME280;11074;48.596;9.238;2023-03-09T06:18:40;96518.13;;;9.32;95.97
21824;BME280;11074;48.596;9.238;2023-03-09T06:21:07;96516.28;;;9.33;96.56
21824;BME280;11074;48.596;9.238;2023-03-09T06:23:33;96521.38;;;9.29;96.94
21824;BME280;11074;48.596;9.238;2023-03-09T06:26:07;96522.66;;;9.32;95.73
21824;BME280;11074;48.596;9.238;2023-03-09T06:28:34;96529.84;;;9.36;96.37
21824;BME280;11074;48.596;9.238;2023-03-09T06:31:07;96541.50;;;9.40;96.43
21824;BME280;11074;48.596;9.238;2023-03-09T06:33:38;96532.16;;;9.43;95.52
21824;BME280;11074;48.596;9.238;2023-03-09T06:36:04;96540.38;;;9.46;96.02
21824;BME280;11074;48.596;9.238;2023-03-09T06:38:30;96534.53;;;9.44;96.22
21824;BME280;11074;48.596;9.238;2023-03-09T06:40:56;96537.22;;;9.44;96.61
21824;BME280;11074;48.596;9.238;2023-03-09T06:43:22;96540.38;;;9.46;96.31
21824;BME280;11074;48.596;9.238;2023-03-09T06:45:49;96550.25;;;9.46;96.49
21824;BME280;11074;48.596;9.238;2023-03-09T06:48:15;96549.44;;;9.45;96.49
21824;BME280;11074;48.596;9.238;2023-03-09T06:50:41;96552.91;;;9.46;96.99
21824;BME280;11074;48.596;9.238;2023-03-09T06:53:07;96562.22;;;9.48;97.31
21824;BME280;11074;48.596;9.238;2023-03-09T06:55:33;96566.00;;;9.42;97.62
21824;BME280;11074;48.596;9.238;2023-03-09T06:57:58;96560.19;;;9.40;97.20
21824;BME280;11074;48.596;9.238;2023-03-09T07:00:24;96566.00;;;9.42;97.61
21824;BME280;11074;48.596;9.238;2023-03-09T07:02:50;96565.00;;;9.38;97.03
21824;BME280;11074;48.596;9.238;2023-03-09T07:05:16;96578.59;;;9.42;97.97
21824;BME280;11074;48.596;9.238;2023-03-09T07:07:42;96566.59;;;9.39;97.96
21824;BME280;11074;48.596;9.238;2023-03-09T07:10:10;96572.94;;;9.43;97.57
21824;BME280;11074;48.596;9.238;2023-03-09T07:12:36;96582.03;;;9.42;96.66
21824;BME280;11074;48.596;9.238;2023-03-09T07:15:03;96591.31;;;9.45;97.37
21824;BME280;11074;48.596;9.238;2023-03-09T07:17:29;96589.94;;;9.52;96.40
21824;BME280;11074;48.596;9.238;2023-03-09T07:19:55;96586.66;;;9.55;97.24
21824;BME280;11074;48.596;9.238;2023-03-09T07:22:23;96589.75;;;9.67;95.72
21824;BME280;11074;48.596;9.238;2023-03-09T07:24:49;96601.09;;;9.78;94.93
21824;BME280;11074;48.596;9.238;2023-03-09T07:27:15;96600.75;;;9.85;94.43
21824;BME280;11074;48.596;9.238;2023-03-09T07:29:41;96590.22;;;9.93;93.57
21824;BME280;11074;48.596;9.238;2023-03-09T07:32:07;96612.31;;;9.99;93.81
21824;BME280;11074;48.596;9.238;2023-03-09T07:34:34;96622.44;;;10.02;93.28
21824;BME280;11074;48.596;9.238;2023-03-09T07:37:00;96632.16;;;10.11;93.12
21824;BME280;11074;48.596;9.238;2023-03-09T07:39:26;96628.13;;;10.19;92.78
21824;BME280;11074;48.596;9.238;2023-03-09T07:41:52;96637.88;;;10.28;91.63
21824;BME280;11074;48.596;9.238;2023-03-09T07:44:18;96635.50;;;10.27;91.90
21824;BME280;11074;48.596;9.238;2023-03-09T07:46:43;96645.31;;;10.31;91.52
21824;BME280;11074;48.596;9.238;2023-03-09T07:49:09;96646.25;;;10.41;90.82
21824;BME280;11074;48.596;9.238;2023-03-09T07:51:35;96653.97;;;10.42;90.37
21824;BME280;11074;48.596;9.238;2023-03-09T07:54:05;96652.31;;;10.46;90.52
21824;BME280;11074;48.596;9.238;2023-03-09T07:56:31;96661.28;;;10.55;89.85
21824;BME280;11074;48.596;9.238;2023-03-09T07:58:57;96667.28;;;10.66;88.88
21824;BME280;11074;48.596;9.238;2023-03-09T08:01:23;96656.72;;;10.74;89.06
21824;BME280;11074;48.596;9.238;2023-03-09T08:03:49;96661.63;;;10.86;88.14
21824;BME280;11074;48.596;9.238;2023-03-09T08:06:16;96661.28;;;10.92;87.60
21824;BME280;11074;48.596;9.238;2023-03-09T08:08:41;96663.56;;;10.99;87.25
21824;BME280;11074;48.596;9.238;2023-03-09T08:11:08;96661.41;;;11.01;87.12
21824;BME280;11074;48.596;9.238;2023-03-09T08:13:35;96664.72;;;11.12;85.86
21824;BME280;11074;48.596;9.238;2023-03-09T08:16:04;96687.91;;;11.16;85.37
21824;BME280;11074;48.596;9.238;2023-03-09T08:18:31;96684.25;;;11.12;84.69
21824;BME280;11074;48.596;9.238;2023-03-09T08:21:11;96687.97;;;11.11;84.54
21824;BME280;11074;48.596;9.238;2023-03-09T08:23:39;96695.69;;;11.13;85.11
21824;BME280;11074;48.596;9.238;2023-03-09T08:26:08;96690.78;;;11.20;85.07
21824;BME280;11074;48.596;9.238;2023-03-09T08:28:34;96703.06;;;11.21;84.41
21824;BME280;11074;48.596;9.238;2023-03-09T08:31:00;96705.75;;;11.21;84.99
21824;BME280;11074;48.596;9.238;2023-03-09T08:33:26;96706.53;;;11.21;84.88
21824;BME280;11074;48.596;9.238;2023-03-09T08:35:51;96717.75;;;11.23;83.95
21824;BME280;11074;48.596;9.238;2023-03-09T08:38:17;96714.88;;;11.20;84.85
21824;BME280;11074;48.596;9.238;2023-03-09T08:40:43;96718.41;;;11.15;84.46
21824;BME280;11074;48.596;9.238;2023-03-09T08:43:09;96725.97;;;11.27;84.23
21824;BME280;11074;48.596;9.238;2023-03-09T08:45:37;96731.84;;;11.29;84.79
21824;BME280;11074;48.596;9.238;2023-03-09T08:48:03;96741.94;;;11.32;84.50
21824;BME280;11074;48.596;9.238;2023-03-09T08:50:29;96732.34;;;11.31;84.66
21824;BME280;11074;48.596;9.238;2023-03-09T08:52:55;96740.66;;;11.29;83.40
21824;BME280;11074;48.596;9.238;2023-03-09T08:55:21;96748.91;;;11.33;84.21
21824;BME280;11074;48.596;9.238;2023-03-09T08:57:48;96744.75;;;11.40;84.47
21824;BME280;11074;48.596;9.238;2023-03-09T09:00:14;96731.53;;;11.49;83.88
21824;BME280;11074;48.596;9.238;2023-03-09T09:02:40;96728.19;;;11.57;83.92
21824;BME280;11074;48.596;9.238;2023-03-09T09:05:07;96726.22;;;11.63;82.61
21824;BME280;11074;48.596;9.238;2023-03-09T09:07:33;96738.88;;;11.57;83.03
21824;BME280;11074;48.596;9.238;2023-03-09T09:10:00;96738.56;;;11.58;83.14
21824;BME280;11074;48.596;9.238;2023-03-09T09:12:26;96751.00;;;11.68;82.14
21824;BME280;11074;48.596;9.238;2023-03-09T09:14:54;96756.00;;;11.75;81.64
21824;BME280;11074;48.596;9.238;2023-03-09T09:17:20;96756.22;;;11.78;80.65
21824;BME280;11074;48.596;9.238;2023-03-09T09:19:46;96767.34;;;11.85;80.61
21824;BME280;11074;48.596;9.238;2023-03-09T09:22:12;96759.03;;;11.87;79.20
21824;BME280;11074;48.596;9.238;2023-03-09T09:24:39;96774.47;;;11.76;79.79
21824;BME280;11074;48.596;9.238;2023-03-09T09:27:06;96764.44;;;11.82;80.13
21824;BME280;11074;48.596;9.238;2023-03-09T09:29:34;96780.81;;;11.80;80.80
21824;BME280;11074;48.596;9.238;2023-03-09T09:32:01;96794.41;;;11.84;79.57
21824;BME280;11074;48.596;9.238;2023-03-09T09:34:31;96820.00;;;11.90;79.54
21824;BME280;11074;48.596;9.238;2023-03-09T09:36:59;96815.53;;;11.85;79.52
21824;BME280;11074;48.596;9.238;2023-03-09T09:39:27;96822.28;;;11.83;79.10
21824;BME280;11074;48.596;9.238;2023-03-09T09:41:58;96839.56;;;11.72;80.24
21824;BME280;11074;48.596;9.238;2023-03-09T09:44:33;96837.41;;;11.74;80.74
21824;BME280;11074;48.596;9.238;2023-03-09T09:47:06;96826.69;;;11.74;80.13
21824;BME280;11074;48.596;9.238;2023-03-09T09:49:44;96835.97;;;11.81;80.62
21824;BME280;11074;48.596;9.238;2023-03-09T09:52:43;96833.47;;;11.85;80.73
21824;BME280;11074;48.596;9.238;2023-03-09T09:55:18;96834.34;;;11.80;81.08
21824;BME280;11074;48.596;9.238;2023-03-09T09:58:04;96842.09;;;11.82;81.41
21824;BME280;11074;48.596;9.238;2023-03-09T10:00:42;96850.78;;;11.74;80.24
21824;BME280;11074;48.596;9.238;2023-03-09T10:03:23;96828.59;;;11.73;81.28
21824;BME280;11074;48.596;9.238;2023-03-09T10:06:16;96842.81;;;11.87;80.49
21824;BME280;11074;48.596;9.238;2023-03-09T10:12:04;96849.69;;;11.93;78.96
21824;BME280;11074;48.596;9.238;2023-03-09T10:14:47;96858.88;;;11.87;78.46
21824;BME280;11074;48.596;9.238;2023-03-09T10:19:50;96840.88;;;12.06;78.68
21824;BME280;11074;48.596;9.238;2023-03-09T10:22:21;96828.09;;;12.17;77.78
21824;BME280;11074;48.596;9.238;2023-03-09T10:24:50;96848.97;;;12.20;76.41
21824;BME280;11074;48.596;9.238;2023-03-09T10:27:40;96841.34;;;12.41;77.40
21824;BME280;11074;48.596;9.238;2023-03-09T10:30:45;96846.50;;;12.51;76.68
21824;BME280;11074;48.596;9.238;2023-03-09T10:33:42;96846.13;;;12.57;75.12
21824;BME280;11074;48.596;9.238;2023-03-09T10:36:20;96845.22;;;12.48;75.03
21824;BME280;11074;48.596;9.238;2023-03-09T10:38:50;96843.16;;;12.59;74.84
21824;BME280;11074;48.596;9.238;2023-03-09T10:41:19;96832.44;;;12.72;73.67
21824;BME280;11074;48.596;9.238;2023-03-09T10:43:46;96845.56;;;12.74;73.74
21824;BME280;11074;48.596;9.238;2023-03-09T10:46:21;96838.69;;;12.82;73.53
21824;BME280;11074;48.596;9.238;2023-03-09T10:48:50;96835.59;;;12.88;73.08
21824;BME280;11074;48.596;9.238;2023-03-09T10:51:38;96815.16;;;12.78;72.37
21824;BME280;11074;48.596;9.238;2023-03-09T10:54:39;96809.56;;;12.89;72.04
21824;BME280;11074;48.596;9.238;2023-03-09T10:57:28;96820.31;;;12.89;72.03
21824;BME280;11074;48.596;9.238;2023-03-09T11:00:06;96796.97;;;12.89;71.30
21824;BME280;11074;48.596;9.238;2023-03-09T11:02:35;96821.22;;;12.57;71.03
21824;BME280;11074;48.596;9.238;2023-03-09T11:05:19;96795.91;;;12.76;70.14
21824;BME280;11074;48.596;9.238;2023-03-09T11:07:50;96808.72;;;12.80;70.16
21824;BME280;11074;48.596;9.238;2023-03-09T11:10:27;96804.41;;;12.92;68.61
21824;BME280;11074;48.596;9.238;2023-03-09T11:12:54;96805.59;;;13.00;67.85
21824;BME280;11074;48.596;9.238;2023-03-09T11:15:30;96810.75;;;12.96;68.14
21824;BME280;11074;48.596;9.238;2023-03-09T11:17:58;96813.75;;;12.95;68.05
21824;BME280;11074;48.596;9.238;2023-03-09T11:20:32;96801.53;;;13.02;67.77
21824;BME280;11074;48.596;9.238;2023-03-09T11:29:14;96815.72;;;13.30;67.28
21824;BME280;11074;48.596;9.238;2023-03-09T11:31:44;96823.41;;;13.45;64.27
21824;BME280;11074;48.596;9.238;2023-03-09T11:34:32;96821.72;;;13.71;64.15
21824;BME280;11074;48.596;9.238;2023-03-09T11:37:16;96826.78;;;13.95;64.29
21824;BME280;11074;48.596;9.238;2023-03-09T11:39:50;96828.59;;;14.08;63.40
21824;BME280;11074;48.596;9.238;2023-03-09T11:42:34;96833.97;;;14.00;62.07
21824;BME280;11074;48.596;9.238;2023-03-09T11:45:05;96831.44;;;13.81;62.96
21824;BME280;11074;48.596;9.238;2023-03-09T11:47:42;96838.63;;;13.72;63.58
21824;BME280;11074;48.596;9.238;2023-03-09T11:50:20;96841.84;;;13.60;64.01
21824;BME280;11074;48.596;9.238;2023-03-09T11:53:00;96834.63;;;13.47;63.32
21824;BME280;11074;48.596;9.238;2023-03-09T11:55:40;96840.69;;;13.53;63.02
21824;BME280;11074;48.596;9.238;2023-03-09T11:58:16;96847.41;;;13.64;63.34
21824;BME280;11074;48.596;9.238;2023-03-09T12:00:49;96850.09;;;13.64;62.51
21824;BME280;11074;48.596;9.238;2023-03-09T12:03:17;96852.19;;;13.67;63.31
21824;BME280;11074;48.596;9.238;2023-03-09T12:06:08;96851.03;;;13.81;61.74
21824;BME280;11074;48.596;9.238;2023-03-09T12:08:43;96844.25;;;14.06;61.95
21824;BME280;11074;48.596;9.238;2023-03-09T12:11:19;96843.34;;;14.33;60.82
21824;BME280;11074;48.596;9.238;2023-03-09T12:13:57;96850.13;;;14.61;60.22
21824;BME280;11074;48.596;9.238;2023-03-09T12:16:38;96834.69;;;14.75;60.77
21824;BME280;11074;48.596;9.238;2023-03-09T12:19:19;96838.34;;;14.88;60.09
21824;BME280;11074;48.596;9.238;2023-03-09T12:22:03;96826.53;;;14.97;60.29
21824;BME280;11074;48.596;9.238;2023-03-09T12:24:40;96837.31;;;14.67;59.71
21824;BME280;11074;48.596;9.238;2023-03-09T12:27:19;96818.53;;;14.75;58.93
21824;BME280;11074;48.596;9.238;2023-03-09T12:29:50;96838.44;;;14.66;59.06
21824;BME280;11074;48.596;9.238;2023-03-09T12:34:48;96807.34;;;14.51;60.14
21824;BME280;11074;48.596;9.238;2023-03-09T12:40:01;96830.56;;;14.38;61.06
21824;BME280;11074;48.596;9.238;2023-03-09T12:42:38;96814.63;;;14.42;61.40
21824;BME280;11074;48.596;9.238;2023-03-09T12:47:39;96810.00;;;14.42;61.14
21824;BME280;11074;48.596;9.238;2023-03-09T12:50:47;96821.22;;;14.36;60.60
21824;BME280;11074;48.596;9.238;2023-03-09T12:53:17;96811.41;;;14.09;62.13
21824;BME280;11074;48.596;9.238;2023-03-09T12:55:54;96802.28;;;14.19;61.16
21824;BME280;11074;48.596;9.238;2023-03-09T13:01:11;96823.13;;;14.35;62.09
21824;BME280;11074;48.596;9.238;2023-03-09T13:06:38;96813.16;;;14.36;61.97
21824;BME280;11074;48.596;9.238;2023-03-09T13:09:19;96811.41;;;14.40;61.41
21824;BME280;11074;48.596;9.238;2023-03-09T13:16:56;96808.78;;;14.48;61.16
21824;BME280;11074;48.596;9.238;2023-03-09T13:29:37;96791.44;;;14.72;59.94
21824;BME280;11074;48.596;9.238;2023-03-09T13:32:20;96807.78;;;14.75;59.25
21824;BME280;11074;48.596;9.238;2023-03-09T13:34:47;96826.84;;;14.56;58.68
21824;BME280;11074;48.596;9.238;2023-03-09T13:37:18;96807.84;;;14.53;58.68
21824;BME280;11074;48.596;9.238;2023-03-09T13:40:26;96817.59;;;14.80;58.86
21824;BME280;11074;48.596;9.238;2023-03-09T13:42:54;96803.47;;;15.22;58.09
21824;BME280;11074;48.596;9.238;2023-03-09T13:45:30;96797.63;;;15.63;56.91
21824;BME280;11074;48.596;9.238;2023-03-09T13:47:59;96802.50;;;16.04;55.45
21824;BME280;11074;48.596;9.238;2023-03-09T13:50:29;96812.94;;;16.31;55.87
21824;BME280;11074;48.596;9.238;2023-03-09T13:55:39;96812.50;;;15.86;55.48
21824;BME280;11074;48.596;9.238;2023-03-09T13:58:24;96799.56;;;15.54;56.20
21824;BME280;11074;48.596;9.238;2023-03-09T14:00:56;96796.22;;;15.48;56.22
21824;BME280;11074;48.596;9.238;2023-03-09T14:03:25;96802.88;;;15.59;56.68
21824;BME280;11074;48.596;9.238;2023-03-09T14:06:07;96790.81;;;15.74;56.23
21824;BME280;11074;48.596;9.238;2023-03-09T14:08:47;96793.03;;;15.81;57.08
21824;BME280;11074;48.596;9.238;2023-03-09T14:11:25;96791.78;;;15.78;56.47